Time;durP1;ratioP1;P1;durP2;ratioP2;P2;SDS_P1;SDS_P2;PMS_P1;PMS_P2;Temp;Humidity;BMP_temperature;BMP_pressure;BME280_temperature;BME280_humidity;BME280_pressure;Samples;Min_cycle;Max_cycle;Signal;HPM_P1;HPM_P2
2022/01/28 00:01:09;;;;;;;4.65;2.60;;;7.00;70.80;;;;;;5049215;28;20427;-75
2022/01/28 00:03:38;;;;;;;3.45;2.50;;;7.10;70.70;;;;;;5035594;28;20028;-75
2022/01/28 00:06:06;;;;;;;2.95;2.15;;;7.00;71.50;;;;;;5057578;28;20031;-75
2022/01/28 00:08:31;;;;;;;4.63;2.60;;;7.10;71.00;;;;;;5043480;28;20023;-75
2022/01/28 00:10:57;;;;;;;3.53;2.40;;;7.10;71.00;;;;;;5068667;28;20039;-76
2022/01/28 00:13:39;;;;;;;3.40;2.25;;;7.10;71.10;;;;;;5071196;28;20024;-75
2022/01/28 00:40:31;;;;;;;2.90;2.17;;;7.20;70.80;;;;;;5070650;28;20040;-74
2022/01/28 00:42:57;;;;;;;2.63;1.80;;;7.30;70.60;;;;;;5072699;28;20031;-75
2022/01/28 00:45:24;;;;;;;3.22;2.30;;;7.30;70.40;;;;;;5090040;28;20028;-74
2022/01/28 00:47:50;;;;;;;3.15;2.13;;;7.30;70.40;;;;;;5089962;28;20032;-74
2022/01/28 00:50:16;;;;;;;2.33;1.83;;;7.40;70.40;;;;;;5051968;28;20115;-74
2022/01/28 00:52:42;;;;;;;3.30;2.38;;;7.40;70.70;;;;;;5069514;28;20033;-74
2022/01/28 00:55:08;;;;;;;2.95;2.22;;;7.30;71.00;;;;;;5052954;28;20036;-74
2022/01/28 00:57:34;;;;;;;2.90;2.10;;;7.30;71.10;;;;;;5059728;28;20119;-73
2022/01/28 01:00:00;;;;;;;2.72;2.13;;;7.30;71.00;;;;;;5072878;28;20062;-74
2022/01/28 01:02:25;;;;;;;2.70;2.20;;;7.40;70.80;;;;;;5069994;28;20044;-74
2022/01/28 01:04:51;;;;;;;2.55;2.00;;;7.40;70.90;;;;;;5072045;28;20458;-74
2022/01/28 01:07:17;;;;;;;4.15;2.20;;;7.40;71.40;;;;;;5059271;28;20029;-74
2022/01/28 01:09:45;;;;;;;2.70;2.13;;;7.30;72.00;;;;;;5079366;28;20025;-74
2022/01/28 01:12:12;;;;;;;3.15;2.22;;;7.20;72.40;;;;;;5055021;28;20028;-75
2022/01/28 01:14:38;;;;;;;3.58;2.53;;;7.20;72.50;;;;;;5080038;28;20051;-75
2022/01/28 01:17:18;;;;;;;3.03;1.90;;;7.20;72.40;;;;;;5074307;28;20031;-75
2022/01/28 01:19:48;;;;;;;3.35;2.22;;;7.20;72.20;;;;;;5085741;28;20095;-75
2022/01/28 01:22:14;;;;;;;5.45;2.10;;;7.20;72.20;;;;;;5054832;28;20044;-75
2022/01/28 01:24:49;;;;;;;2.67;1.92;;;7.10;71.80;;;;;;5079893;28;20879;-75
2022/01/28 01:27:16;;;;;;;3.30;2.30;;;7.10;71.60;;;;;;5096287;28;20107;-75
2022/01/28 01:29:44;;;;;;;2.80;1.80;;;7.10;71.50;;;;;;5111027;28;20115;-75
2022/01/28 01:32:14;;;;;;;2.70;1.80;;;7.10;71.50;;;;;;5099219;28;20024;-75
2022/01/28 01:34:40;;;;;;;2.55;1.95;;;7.10;71.10;;;;;;5092230;28;20028;-74
2022/01/28 01:37:08;;;;;;;2.22;1.50;;;7.20;70.90;;;;;;5092618;28;20024;-74
2022/01/28 01:39:36;;;;;;;2.50;1.60;;;7.20;70.70;;;;;;5092859;28;20177;-74
2022/01/28 01:42:18;;;;;;;2.30;1.73;;;7.20;70.60;;;;;;5101195;28;20024;-75
2022/01/28 01:52:52;;;;;;;2.47;1.90;;;7.30;70.00;;;;;;5092231;28;20079;-75
2022/01/28 01:55:18;;;;;;;2.22;1.70;;;7.30;70.10;;;;;;5093505;28;20024;-76
2022/01/28 01:57:45;;;;;;;3.08;2.05;;;7.30;70.80;;;;;;5092044;28;20030;-75
2022/01/28 02:00:12;;;;;;;2.78;2.20;;;7.30;72.00;;;;;;5092595;28;20024;-75
2022/01/28 02:02:37;;;;;;;2.78;2.22;;;7.30;72.60;;;;;;5099550;28;20028;-75
2022/01/28 02:05:04;;;;;;;3.00;2.38;;;7.20;72.80;;;;;;5092144;28;20145;-75
2022/01/28 02:07:31;;;;;;;3.70;2.65;;;7.20;72.60;;;;;;5099547;28;20027;-75
2022/01/28 02:09:56;;;;;;;2.92;2.22;;;7.20;72.20;;;;;;5110549;28;20027;-75
2022/01/28 02:12:22;;;;;;;3.00;2.30;;;7.10;72.40;;;;;;5090476;28;20485;-75
2022/01/28 02:14:48;;;;;;;2.90;2.38;;;7.10;72.60;;;;;;5091957;28;20063;-75
2022/01/28 02:17:14;;;;;;;2.78;2.22;;;7.10;72.40;;;;;;5092177;28;20443;-75
2022/01/28 02:19:40;;;;;;;3.90;2.83;;;7.10;72.20;;;;;;5092075;28;20063;-75
2022/01/28 02:22:07;;;;;;;3.40;2.40;;;7.10;72.10;;;;;;5088871;28;20045;-76
2022/01/28 02:24:44;;;;;;;2.67;2.28;;;7.10;71.80;;;;;;5053216;28;20063;-76
2022/01/28 02:27:14;;;;;;;4.32;2.33;;;7.10;71.70;;;;;;5077093;28;20020;-75
2022/01/28 02:29:41;;;;;;;2.45;1.95;;;7.10;71.70;;;;;;5087260;28;20028;-77
2022/01/28 02:32:08;;;;;;;3.88;2.05;;;7.00;71.80;;;;;;5071252;28;20499;-77
2022/01/28 02:34:54;;;;;;;2.80;2.08;;;6.90;71.80;;;;;;5073072;28;20431;-76
2022/01/28 02:37:20;;;;;;;2.53;2.00;;;7.00;72.30;;;;;;5092463;28;20457;-76
2022/01/28 02:39:45;;;;;;;2.90;1.80;;;6.90;71.60;;;;;;5079394;28;20023;-76
2022/01/28 02:42:21;;;;;;;2.30;2.00;;;6.90;71.60;;;;;;5069289;28;20036;-76
2022/01/28 02:44:53;;;;;;;3.15;2.05;;;6.90;71.40;;;;;;5053228;28;20119;-76
2022/01/28 02:47:30;;;;;;;2.80;2.05;;;6.90;71.70;;;;;;5072596;28;20111;-77
2022/01/28 02:49:58;;;;;;;3.45;2.15;;;6.90;71.50;;;;;;5069612;28;20466;-76
2022/01/28 02:52:34;;;;;;;2.42;1.60;;;6.90;71.40;;;;;;5053329;28;20446;-77
2022/01/28 02:55:02;;;;;;;2.65;1.95;;;6.90;71.00;;;;;;5070302;28;20029;-76
2022/01/28 02:57:28;;;;;;;2.58;1.92;;;7.00;71.00;;;;;;5079507;28;20099;-76
2022/01/28 02:59:54;;;;;;;2.70;1.92;;;6.90;70.90;;;;;;5068703;28;20155;-77
2022/01/28 03:02:20;;;;;;;2.30;1.80;;;7.00;70.90;;;;;;5063215;28;20470;-75
2022/01/28 03:07:14;;;;;;;3.60;2.25;;;7.10;70.40;;;;;;5063050;28;20178;-75
2022/01/28 03:10:14;;;;;;;2.70;2.17;;;7.10;70.70;;;;;;5056203;28;20033;-75
2022/01/28 03:12:48;;;;;;;2.90;2.20;;;7.00;71.00;;;;;;5081912;28;20450;-75
2022/01/28 03:15:19;;;;;;;2.90;2.28;;;7.00;71.00;;;;;;5058893;28;20094;-75
2022/01/28 03:17:56;;;;;;;3.22;2.00;;;7.00;71.00;;;;;;5036684;28;20103;-75
2022/01/28 03:22:47;;;;;;;2.90;2.40;;;7.10;70.90;;;;;;5064119;28;20110;-76
2022/01/28 03:25:15;;;;;;;2.90;2.28;;;7.10;71.10;;;;;;5053353;28;20031;-75
2022/01/28 03:30:12;;;;;;;2.65;2.08;;;7.00;71.20;;;;;;5058717;28;20032;-75
2022/01/28 03:32:37;;;;;;;4.00;2.20;;;6.90;71.70;;;;;;5069491;28;20021;-75
2022/01/28 03:35:05;;;;;;;3.30;2.63;;;6.90;72.00;;;;;;5054604;28;20028;-75
2022/01/28 03:37:30;;;;;;;3.10;2.20;;;6.80;72.30;;;;;;5052383;28;20036;-75
2022/01/28 03:39:56;;;;;;;3.25;2.53;;;6.80;72.40;;;;;;5039382;28;20355;-75
2022/01/28 03:42:22;;;;;;;3.95;2.45;;;6.80;72.20;;;;;;5056053;28;20027;-75
2022/01/28 03:44:47;;;;;;;2.90;2.33;;;6.80;72.20;;;;;;5037330;28;20044;-76
2022/01/28 03:47:13;;;;;;;3.15;2.47;;;6.80;72.40;;;;;;5069453;28;20028;-76
2022/01/28 03:49:39;;;;;;;3.15;2.50;;;6.70;72.60;;;;;;5071186;28;20469;-76
2022/01/28 03:52:05;;;;;;;3.65;2.33;;;6.80;72.50;;;;;;5053566;28;20460;-76
2022/01/28 03:54:30;;;;;;;3.10;2.25;;;6.80;72.20;;;;;;5064728;28;20079;-76
2022/01/28 03:56:56;;;;;;;3.15;2.30;;;6.80;72.20;;;;;;5064570;28;20064;-77
2022/01/28 03:59:22;;;;;;;3.15;1.95;;;6.90;71.80;;;;;;5066359;28;20442;-76
2022/01/28 04:01:49;;;;;;;3.00;2.30;;;6.90;71.40;;;;;;5040600;28;20062;-75
2022/01/28 04:12:09;;;;;;;2.88;2.20;;;6.90;70.80;;;;;;5056128;28;20038;-75
2022/01/28 04:14:48;;;;;;;2.90;2.13;;;6.80;70.60;;;;;;5065180;28;20024;-75
2022/01/28 04:17:20;;;;;;;3.67;2.90;;;6.80;70.60;;;;;;5037526;28;20051;-75
2022/01/28 04:19:46;;;;;;;3.42;2.45;;;6.80;70.60;;;;;;5055808;28;20024;-75
2022/01/28 04:22:12;;;;;;;3.60;2.75;;;6.80;70.60;;;;;;5084726;28;20048;-75
2022/01/28 04:24:38;;;;;;;3.63;2.78;;;6.80;70.60;;;;;;5090785;28;20420;-76
2022/01/28 04:27:04;;;;;;;3.38;2.58;;;6.80;70.50;;;;;;5069776;28;20085;-75
2022/01/28 04:29:29;;;;;;;3.35;2.50;;;6.80;70.30;;;;;;5072758;28;20414;-75
2022/01/28 04:31:55;;;;;;;3.47;2.80;;;6.80;70.20;;;;;;5058973;28;20047;-75
2022/01/28 04:34:23;;;;;;;4.82;2.78;;;6.80;70.10;;;;;;5075476;28;20024;-75
2022/01/28 04:37:00;;;;;;;3.53;2.38;;;6.80;70.00;;;;;;5086276;28;20081;-75
2022/01/28 04:44:29;;;;;;;3.40;2.38;;;6.90;69.20;;;;;;5086250;28;20347;-75
2022/01/28 04:47:13;;;;;;;3.55;2.55;;;6.90;68.80;;;;;;5056518;28;20063;-75
2022/01/28 04:52:30;;;;;;;2.45;2.08;;;6.90;68.00;;;;;;5073883;28;20020;-74
2022/01/28 04:55:16;;;;;;;4.10;2.50;;;6.90;67.90;;;;;;5073956;28;20029;-75
2022/01/28 05:11:13;;;;;;;5.25;3.00;;;7.20;68.00;;;;;;5093598;28;20031;-75
2022/01/28 05:29:26;;;;;;;6.47;3.50;;;6.90;69.10;;;;;;5072715;28;20120;-74
2022/01/28 05:31:52;;;;;;;4.72;3.15;;;6.90;69.40;;;;;;5072574;28;20047;-76
2022/01/28 05:34:18;;;;;;;3.90;3.05;;;6.90;69.40;;;;;;5068305;28;20099;-76
2022/01/28 05:36:44;;;;;;;6.22;3.38;;;6.90;69.40;;;;;;5084261;28;20028;-76
2022/01/28 05:39:10;;;;;;;4.13;2.90;;;6.90;69.10;;;;;;5053859;28;20056;-76
2022/01/28 05:41:36;;;;;;;5.38;3.15;;;6.90;68.70;;;;;;5066496;28;20072;-76
2022/01/28 05:44:02;;;;;;;5.22;3.40;;;6.90;68.40;;;;;;5070982;28;20549;-76
2022/01/28 05:46:29;;;;;;;3.90;2.90;;;7.00;68.30;;;;;;5056271;28;20426;-76
2022/01/28 05:48:56;;;;;;;4.10;2.42;;;7.00;68.30;;;;;;5050393;28;20067;-75
2022/01/28 05:51:22;;;;;;;4.03;2.80;;;7.00;67.80;;;;;;5047291;28;20151;-75
2022/01/28 05:53:48;;;;;;;6.93;3.00;;;7.00;68.10;;;;;;5067224;28;20482;-76
2022/01/28 05:56:13;;;;;;;8.85;3.03;;;7.00;67.90;;;;;;5041675;28;20488;-75
2022/01/28 05:58:39;;;;;;;6.75;2.92;;;7.10;67.50;;;;;;5048922;28;20024;-76
2022/01/28 06:01:05;;;;;;;6.75;3.13;;;7.00;67.10;;;;;;5054305;28;20036;-75
2022/01/28 06:03:30;;;;;;;4.93;3.03;;;7.10;67.10;;;;;;5070005;28;20029;-75
2022/01/28 06:05:56;;;;;;;4.30;2.45;;;7.00;67.10;;;;;;5053510;28;20037;-76
2022/01/28 06:08:22;;;;;;;5.22;2.35;;;6.90;66.80;;;;;;5048577;28;20032;-76
2022/01/28 06:10:48;;;;;;;3.38;2.30;;;6.90;66.70;;;;;;5068971;28;20382;-75
2022/01/28 06:13:13;;;;;;;7.15;2.75;;;6.90;66.60;;;;;;5069282;28;20033;-75
2022/01/28 06:15:41;;;;;;;4.28;2.80;;;6.90;66.10;;;;;;5071721;28;20081;-75
2022/01/28 06:18:08;;;;;;;7.13;2.50;;;6.90;66.00;;;;;;5078171;28;20046;-75
2022/01/28 06:20:34;;;;;;;6.05;2.47;;;6.90;65.50;;;;;;5071587;28;20113;-74
2022/01/28 06:23:00;;;;;;;4.22;2.42;;;6.80;65.00;;;;;;5058275;28;20575;-75
2022/01/28 06:25:26;;;;;;;4.65;2.63;;;6.90;65.20;;;;;;5062028;28;20048;-75
2022/01/28 06:27:52;;;;;;;8.43;3.08;;;6.90;64.90;;;;;;5048228;28;20036;-75
2022/01/28 06:30:19;;;;;;;8.52;3.53;;;6.90;64.90;;;;;;5070751;28;20102;-76
2022/01/28 06:32:45;;;;;;;4.97;2.75;;;6.90;65.40;;;;;;5065101;28;20117;-75
2022/01/28 06:35:11;;;;;;;6.07;2.90;;;6.90;65.10;;;;;;5069922;28;20068;-75
2022/01/28 06:37:38;;;;;;;6.18;2.92;;;6.90;66.30;;;;;;5047217;28;20032;-76
2022/01/28 06:40:10;;;;;;;6.38;3.28;;;6.80;67.00;;;;;;5065976;28;20074;-77
2022/01/28 06:42:36;;;;;;;7.97;3.13;;;6.80;67.40;;;;;;5058229;28;20020;-75
2022/01/28 06:45:05;;;;;;;5.05;2.97;;;6.80;67.70;;;;;;5070394;28;20663;-76
2022/01/28 06:47:32;;;;;;;8.30;3.10;;;6.80;67.40;;;;;;5076398;28;20021;-75
2022/01/28 06:49:58;;;;;;;3.45;2.60;;;6.70;67.50;;;;;;5050421;28;20135;-75
2022/01/28 06:52:24;;;;;;;4.95;2.58;;;6.70;67.60;;;;;;5061217;28;20098;-76
2022/01/28 06:54:50;;;;;;;5.53;2.50;;;6.70;67.60;;;;;;5073249;28;20033;-75
2022/01/28 06:57:16;;;;;;;4.47;2.85;;;6.70;67.60;;;;;;5079484;28;20035;-75
2022/01/28 06:59:42;;;;;;;5.15;2.38;;;6.80;67.40;;;;;;5068027;28;20103;-73
2022/01/28 07:02:07;;;;;;;4.55;1.95;;;6.70;67.50;;;;;;5055991;28;20470;-75
2022/01/28 07:04:33;;;;;;;2.30;1.48;;;6.80;67.30;;;;;;5070661;28;20051;-74
2022/01/28 07:06:59;;;;;;;3.20;1.20;;;6.80;67.10;;;;;;5075810;28;20028;-72
2022/01/28 07:09:25;;;;;;;4.72;1.60;;;6.80;67.50;;;;;;5062129;28;20134;-62
2022/01/28 07:11:51;;;;;;;12.52;2.40;;;6.80;67.40;;;;;;5058694;28;20055;-65
2022/01/28 07:14:16;;;;;;;5.07;2.15;;;6.80;68.30;;;;;;5065068;28;20033;-65
2022/01/28 07:16:43;;;;;;;6.65;2.67;;;6.80;68.90;;;;;;5051324;28;20033;-64
2022/01/28 07:19:09;;;;;;;6.30;3.08;;;6.80;69.40;;;;;;5045678;28;20371;-66
2022/01/28 07:21:35;;;;;;;3.85;2.45;;;6.70;69.90;;;;;;5065383;28;20049;-65
2022/01/28 07:24:01;;;;;;;11.65;2.80;;;6.80;69.50;;;;;;5052351;28;20037;-66
2022/01/28 07:26:27;;;;;;;7.63;2.60;;;6.80;69.40;;;;;;5038003;28;20535;-66
2022/01/28 07:28:53;;;;;;;6.72;2.53;;;6.80;69.30;;;;;;5035587;28;20025;-66
2022/01/28 07:31:19;;;;;;;7.93;2.78;;;6.80;69.20;;;;;;5061827;28;20142;-65
2022/01/28 07:33:45;;;;;;;4.93;2.20;;;6.90;68.80;;;;;;5058067;28;20029;-64
2022/01/28 07:36:12;;;;;;;6.68;2.28;;;6.90;68.30;;;;;;5073395;28;20031;-64
2022/01/28 07:38:38;;;;;;;5.05;1.95;;;6.90;67.90;;;;;;5072934;28;20017;-65
2022/01/28 07:41:05;;;;;;;3.08;1.55;;;7.00;67.30;;;;;;5091006;28;20127;-64
2022/01/28 07:43:33;;;;;;;4.22;2.30;;;7.10;65.70;;;;;;5071808;28;20023;-64
2022/01/28 07:45:59;;;;;;;11.32;3.50;;;7.90;67.00;;;;;;5061256;28;20438;-64
2022/01/28 07:48:24;;;;;;;4.30;3.45;;;10.80;60.30;;;;;;5071557;28;20108;-65
2022/01/28 07:50:51;;;;;;;5.07;2.28;;;13.30;53.30;;;;;;5034233;28;20021;-62
2022/01/28 07:53:17;;;;;;;2.85;1.95;;;14.80;47.40;;;;;;5068572;28;20059;-65
2022/01/28 07:55:44;;;;;;;6.35;3.08;;;15.60;43.60;;;;;;5063802;28;20447;-65
2022/01/28 07:58:10;;;;;;;4.10;3.45;;;15.60;43.30;;;;;;5066144;28;20031;-64
2022/01/28 08:00:35;;;;;;;4.43;1.90;;;16.20;41.00;;;;;;5071595;28;20345;-64
2022/01/28 08:03:01;;;;;;;4.97;3.67;;;16.70;40.70;;;;;;5068765;28;20090;-65
2022/01/28 08:05:27;;;;;;;6.85;3.55;;;16.50;39.80;;;;;;5056320;28;20025;-64
2022/01/28 08:07:53;;;;;;;3.03;2.13;;;15.60;38.90;;;;;;5070797;28;20044;-64
2022/01/28 08:10:19;;;;;;;3.33;1.10;;;14.50;40.50;;;;;;5073713;28;20075;-64
2022/01/28 08:12:53;;;;;;;4.18;1.00;;;13.60;41.50;;;;;;5054648;28;20063;-64
2022/01/28 08:15:20;;;;;;;4.50;1.10;;;12.60;42.60;;;;;;5089784;28;20036;-63
2022/01/28 08:17:45;;;;;;;6.60;1.73;;;11.80;44.30;;;;;;5048271;28;20477;-64
2022/01/28 08:20:12;;;;;;;4.15;1.70;;;11.30;45.90;;;;;;5069415;28;20024;-64
2022/01/28 08:22:45;;;;;;;4.65;1.05;;;11.10;46.70;;;;;;5067785;28;20052;-64
2022/01/28 08:25:10;;;;;;;2.75;1.05;;;10.80;46.10;;;;;;5068788;28;20028;-64
2022/01/28 08:27:36;;;;;;;12.23;2.30;;;10.40;47.40;;;;;;5046821;28;20386;-64
2022/01/28 08:30:03;;;;;;;9.07;1.40;;;10.30;47.90;;;;;;5045927;28;20385;-64
2022/01/28 08:32:29;;;;;;;5.55;1.92;;;10.30;47.90;;;;;;5035517;28;20570;-65
2022/01/28 08:34:54;;;;;;;7.25;1.45;;;10.20;47.30;;;;;;5061287;28;20077;-63
2022/01/28 08:37:20;;;;;;;12.25;1.40;;;10.10;47.20;;;;;;5065659;28;20111;-63
2022/01/28 08:39:48;;;;;;;6.32;1.40;;;10.10;48.20;;;;;;5055486;28;20388;-65
2022/01/28 08:42:16;;;;;;;3.63;1.13;;;10.10;47.80;;;;;;5080592;28;20109;-64
2022/01/28 08:44:42;;;;;;;2.40;1.30;;;10.00;47.80;;;;;;5073164;28;20036;-63
2022/01/28 08:47:08;;;;;;;3.75;1.20;;;9.80;48.00;;;;;;5068835;28;20028;-64
2022/01/28 08:49:34;;;;;;;3.10;1.50;;;9.60;48.80;;;;;;5093007;28;20046;-65
2022/01/28 08:52:00;;;;;;;2.38;1.33;;;9.50;49.70;;;;;;5083230;28;20474;-64
2022/01/28 08:54:26;;;;;;;3.40;1.42;;;9.60;50.00;;;;;;5077319;28;20025;-64
2022/01/28 08:56:52;;;;;;;2.80;1.45;;;9.60;50.10;;;;;;5067717;28;20504;-64
2022/01/28 08:59:17;;;;;;;5.88;1.45;;;9.50;50.70;;;;;;5075442;28;20073;-64
2022/01/28 09:01:43;;;;;;;2.92;1.30;;;9.30;50.80;;;;;;5059224;28;20029;-66
2022/01/28 09:04:09;;;;;;;3.67;1.42;;;9.20;51.30;;;;;;5072513;28;20052;-65
2022/01/28 09:06:35;;;;;;;10.48;1.63;;;9.20;51.10;;;;;;5072453;28;20081;-64
2022/01/28 09:09:01;;;;;;;5.97;1.58;;;9.30;51.20;;;;;;5073678;28;20175;-64
2022/01/28 09:13:55;;;;;;;4.50;1.50;;;9.20;51.10;;;;;;5077864;28;20051;-63
2022/01/28 09:16:21;;;;;;;5.82;1.77;;;9.00;52.00;;;;;;5085669;28;20039;-63
2022/01/28 09:18:48;;;;;;;6.63;1.70;;;9.00;52.60;;;;;;5068983;28;20043;-64
2022/01/28 09:21:13;;;;;;;3.72;1.75;;;9.00;53.30;;;;;;5042201;28;20052;-63
2022/01/28 09:23:40;;;;;;;6.95;2.10;;;8.90;54.00;;;;;;5051949;28;20039;-64
2022/01/28 09:26:06;;;;;;;9.85;1.70;;;8.80;54.40;;;;;;5054561;28;20366;-64
2022/01/28 09:28:32;;;;;;;4.45;1.80;;;8.90;55.00;;;;;;5039162;28;20021;-65
2022/01/28 09:30:57;;;;;;;9.82;2.20;;;9.00;54.80;;;;;;5053423;28;20454;-65
2022/01/28 09:33:24;;;;;;;8.32;2.00;;;9.00;54.50;;;;;;5066697;28;20028;-64
2022/01/28 09:35:50;;;;;;;6.07;1.63;;;9.10;54.00;;;;;;5037211;28;20117;-64
2022/01/28 09:38:16;;;;;;;3.53;1.40;;;9.00;53.00;;;;;;5042908;28;20059;-65
2022/01/28 09:40:42;;;;;;;4.07;1.60;;;9.00;52.30;;;;;;5059989;28;20028;-64
2022/01/28 09:43:09;;;;;;;4.10;1.30;;;8.90;50.50;;;;;;5067658;28;20105;-65
2022/01/28 09:45:35;;;;;;;8.20;1.50;;;9.00;49.20;;;;;;5054391;28;20036;-65
2022/01/28 09:48:02;;;;;;;4.68;1.38;;;9.00;48.10;;;;;;5034334;28;20043;-65
2022/01/28 09:50:31;;;;;;;9.02;1.42;;;9.10;48.00;;;;;;5065486;28;20084;-64
2022/01/28 09:52:58;;;;;;;8.55;3.88;;;9.20;47.60;;;;;;5058084;28;20474;-65
2022/01/28 09:55:25;;;;;;;4.97;1.33;;;9.30;46.40;;;;;;5045617;28;20033;-64
2022/01/28 09:57:54;;;;;;;3.47;1.20;;;9.20;47.00;;;;;;5038060;28;20027;-65
2022/01/28 10:00:25;;;;;;;4.10;1.25;;;9.20;46.20;;;;;;5043526;28;20021;-66
2022/01/28 10:02:56;;;;;;;3.97;1.10;;;9.30;46.60;;;;;;5064611;28;20059;-64
2022/01/28 10:05:50;;;;;;;6.63;1.80;;;9.40;46.20;;;;;;5044971;28;20029;-65
2022/01/28 10:08:16;;;;;;;;;;;9.50;45.60;;;;;;5039115;28;20041;-63
2022/01/28 10:10:51;;;;;;;9.07;1.40;;;9.60;44.90;;;;;;5062975;28;20239;-65
2022/01/28 10:13:29;;;;;;;6.55;1.63;;;9.70;45.90;;;;;;5069702;28;20029;-65
2022/01/28 10:15:58;;;;;;;5.07;1.25;;;9.90;45.70;;;;;;5062680;28;20107;-65
2022/01/28 10:18:54;;;;;;;5.38;1.38;;;10.10;44.60;;;;;;5059062;28;20082;-65
2022/01/28 10:21:22;;;;;;;6.25;1.23;;;10.30;45.00;;;;;;5039023;28;20044;-64
2022/01/28 10:24:06;;;;;;;8.45;1.33;;;10.30;45.40;;;;;;5087840;28;20031;-65
2022/01/28 10:26:36;;;;;;;4.30;1.40;;;10.50;45.70;;;;;;5084118;28;20028;-65
2022/01/28 10:29:13;;;;;;;5.30;1.15;;;10.60;45.80;;;;;;5091467;28;20039;-65
2022/01/28 10:31:45;;;;;;;5.78;1.65;;;10.50;46.00;;;;;;5091126;28;20020;-65
2022/01/28 10:34:16;;;;;;;5.07;1.35;;;10.50;46.60;;;;;;5092784;28;20028;-64
2022/01/28 10:36:44;;;;;;;7.50;1.70;;;10.40;47.00;;;;;;5107737;28;20143;-64
2022/01/28 10:39:28;;;;;;;8.70;1.90;;;10.30;47.30;;;;;;5106189;28;20073;-65
2022/01/28 10:41:59;;;;;;;3.38;1.60;;;10.20;47.60;;;;;;5109727;28;20122;-66
2022/01/28 10:44:27;;;;;;;6.35;1.98;;;10.30;47.70;;;;;;5090977;28;20178;-64
2022/01/28 10:47:03;;;;;;;4.07;1.50;;;10.20;48.10;;;;;;5090880;28;20458;-64
2022/01/28 10:49:37;;;;;;;4.47;1.45;;;10.10;47.90;;;;;;5090263;28;20018;-66
2022/01/28 10:52:09;;;;;;;6.85;1.25;;;9.90;47.30;;;;;;5111541;28;20077;-64
2022/01/28 10:54:36;;;;;;;5.63;1.50;;;9.80;47.50;;;;;;5104604;28;20031;-65
2022/01/28 10:57:03;;;;;;;2.60;1.10;;;9.60;47.00;;;;;;5093665;28;20024;-65
2022/01/28 10:59:38;;;;;;;6.40;1.48;;;9.60;46.90;;;;;;5091640;28;20084;-65
2022/01/28 11:02:05;;;;;;;6.10;1.30;;;9.60;46.90;;;;;;5093927;28;20032;-66
2022/01/28 11:04:33;;;;;;;4.13;0.90;;;9.60;47.40;;;;;;5085944;28;20519;-64
2022/01/28 11:07:00;;;;;;;5.65;1.77;;;9.30;49.10;;;;;;5102014;28;20053;-65
2022/01/28 11:09:26;;;;;;;4.18;1.40;;;9.30;49.50;;;;;;5109963;28;20520;-65
2022/01/28 11:11:53;;;;;;;7.63;1.30;;;9.30;49.50;;;;;;5109458;28;20119;-64
2022/01/28 11:14:20;;;;;;;5.55;2.00;;;9.30;49.50;;;;;;5110722;28;20459;-64
2022/01/28 11:16:47;;;;;;;3.58;1.30;;;9.60;49.30;;;;;;5110465;28;20028;-68
2022/01/28 11:19:19;;;;;;;3.58;1.25;;;9.70;47.80;;;;;;5093316;28;20464;-65
2022/01/28 11:22:08;;;;;;;6.82;1.60;;;9.70;48.10;;;;;;5081562;28;20128;-65
2022/01/28 11:24:58;;;;;;;3.53;1.35;;;9.80;47.60;;;;;;5069352;28;20078;-66
2022/01/28 11:27:34;;;;;;;6.85;1.80;;;9.90;46.70;;;;;;5033108;28;20109;-64
2022/01/28 11:30:17;;;;;;;4.47;1.40;;;9.90;46.60;;;;;;5065633;28;20112;-62
2022/01/28 11:33:03;;;;;;;5.10;1.55;;;9.80;45.80;;;;;;5054301;28;20059;-65
2022/01/28 11:35:40;;;;;;;2.55;1.35;;;9.80;45.80;;;;;;5043482;28;20058;-65
2022/01/28 11:38:25;;;;;;;6.25;1.50;;;9.80;45.40;;;;;;5069772;28;20024;-65
2022/01/28 11:40:54;;;;;;;;;;;10.00;44.70;;;;;;5091094;28;20032;-64
2022/01/28 11:43:26;;;;;;;11.57;1.85;;;10.10;44.70;;;;;;5055468;28;19927;-64
2022/01/28 11:46:21;;;;;;;6.78;1.90;;;10.50;44.70;;;;;;5069330;28;20103;-65
2022/01/28 11:48:55;;;;;;;8.07;1.70;;;10.80;43.70;;;;;;5062341;28;20523;-65
2022/01/28 11:51:42;;;;;;;3.35;1.25;;;10.90;43.00;;;;;;5070779;28;20305;-65
2022/01/28 11:54:14;;;;;;;3.63;1.40;;;11.00;42.70;;;;;;5052735;28;20031;-65
2022/01/28 11:57:02;;;;;;;5.13;1.30;;;11.00;42.60;;;;;;5068685;28;20205;-65
2022/01/28 11:59:31;;;;;;;4.35;1.67;;;10.90;42.80;;;;;;5069464;28;20390;-65
2022/01/28 12:01:59;;;;;;;7.13;1.50;;;11.10;41.90;;;;;;5069787;28;20025;-64
2022/01/28 12:04:25;;;;;;;4.35;1.60;;;11.10;42.00;;;;;;5070630;28;20051;-65
2022/01/28 12:06:55;;;;;;;5.15;1.80;;;11.20;41.50;;;;;;5038993;28;20028;-65
2022/01/28 12:09:23;;;;;;;6.93;1.75;;;11.30;41.20;;;;;;5068916;28;20043;-65
2022/01/28 12:11:50;;;;;;;7.85;2.00;;;11.10;41.10;;;;;;5071113;28;20032;-65
2022/01/28 12:14:17;;;;;;;5.65;1.50;;;11.10;41.30;;;;;;5081699;28;20024;-65
2022/01/28 12:16:46;;;;;;;5.88;2.60;;;10.90;41.30;;;;;;5087336;28;20077;-65
2022/01/28 12:19:18;;;;;;;5.32;1.20;;;10.80;41.40;;;;;;5090008;28;20035;-64
2022/01/28 12:22:10;;;;;;;4.18;1.88;;;10.70;41.50;;;;;;5072122;28;20040;-65
2022/01/28 12:24:37;;;;;;;6.70;1.60;;;10.70;41.30;;;;;;5088874;28;20469;-65
2022/01/28 12:27:13;;;;;;;5.70;1.35;;;10.50;42.00;;;;;;5088707;28;20036;-64
2022/01/28 12:29:47;;;;;;;5.82;1.67;;;10.50;41.90;;;;;;5089471;28;20126;-65
2022/01/28 12:35:04;;;;;;;9.27;1.48;;;10.30;43.10;;;;;;5090764;28;20067;-65
2022/01/28 12:37:36;;;;;;;4.60;1.60;;;10.10;44.20;;;;;;5089174;28;20074;-65
2022/01/28 12:40:13;;;;;;;3.15;1.48;;;9.90;44.60;;;;;;5077860;28;20025;-65
2022/01/28 12:42:40;;;;;;;4.28;1.60;;;9.90;45.00;;;;;;5078919;28;20023;-65
2022/01/28 12:45:06;;;;;;;7.35;1.80;;;9.90;45.30;;;;;;5071162;28;20032;-65
2022/01/28 12:47:34;;;;;;;6.88;1.90;;;9.80;45.10;;;;;;5083839;28;20035;-65
2022/01/28 12:50:03;;;;;;;8.40;1.60;;;9.80;45.40;;;;;;5090175;28;20019;-66
2022/01/28 12:52:34;;;;;;;7.97;1.55;;;9.60;45.20;;;;;;5092805;28;20103;-65
2022/01/28 12:55:01;;;;;;;3.63;1.52;;;9.60;45.10;;;;;;5085388;28;20133;-65
2022/01/28 12:57:27;;;;;;;6.28;1.60;;;9.60;44.90;;;;;;5074729;28;20020;-65
2022/01/28 12:59:53;;;;;;;9.13;1.65;;;9.50;45.40;;;;;;5092272;28;20039;-65
2022/01/28 13:02:19;;;;;;;7.97;1.65;;;9.50;45.70;;;;;;5092721;28;20129;-64
2022/01/28 13:09:57;;;;;;;7.20;2.00;;;9.90;45.20;;;;;;5082554;28;20032;-64
2022/01/28 13:12:29;;;;;;;5.15;1.50;;;9.80;45.40;;;;;;5093707;28;20104;-66
2022/01/28 13:15:02;;;;;;;6.20;1.80;;;9.80;45.00;;;;;;5092727;28;20034;-65
2022/01/28 13:17:28;;;;;;;5.10;1.60;;;9.80;45.10;;;;;;5092499;28;20017;-64
2022/01/28 13:19:59;;;;;;;7.28;1.65;;;9.80;45.10;;;;;;5099874;28;20365;-64
2022/01/28 13:22:27;;;;;;;6.53;2.45;;;9.90;44.90;;;;;;5106797;28;20048;-64
2022/01/28 13:24:53;;;;;;;3.45;1.67;;;9.70;44.50;;;;;;5091796;28;20032;-65
2022/01/28 13:27:21;;;;;;;18.05;3.70;;;9.70;44.50;;;;;;5091533;28;20028;-65
2022/01/28 13:29:51;;;;;;;10.77;1.83;;;9.60;44.50;;;;;;5092337;28;20179;-64
2022/01/28 13:32:27;;;;;;;9.60;2.15;;;9.60;44.70;;;;;;5092562;28;20023;-65
2022/01/28 13:34:56;;;;;;;6.25;1.88;;;9.60;44.80;;;;;;5094583;28;20028;-64
2022/01/28 13:37:42;;;;;;;8.90;2.20;;;9.60;44.80;;;;;;5112914;28;20122;-64
2022/01/28 13:40:10;;;;;;;7.70;1.88;;;9.70;44.90;;;;;;5080493;28;20531;-65
2022/01/28 13:42:37;;;;;;;4.95;1.60;;;9.80;44.60;;;;;;5089192;28;20016;-65
2022/01/28 13:45:05;;;;;;;5.85;2.10;;;9.90;44.60;;;;;;5112222;28;20023;-65
2022/01/28 13:47:51;;;;;;;6.97;2.03;;;9.80;44.70;;;;;;5113136;28;20059;-65
2022/01/28 13:50:32;;;;;;;6.15;2.15;;;9.70;44.60;;;;;;5093688;28;20024;-67
2022/01/28 13:53:33;;;;;;;7.18;2.50;;;9.50;44.90;;;;;;5089953;28;20024;-65
2022/01/28 13:55:59;;;;;;;5.55;1.60;;;9.50;45.10;;;;;;5086262;28;20041;-65
2022/01/28 13:58:26;;;;;;;8.52;2.45;;;9.50;45.40;;;;;;5079547;28;20130;-65
2022/01/28 14:00:53;;;;;;;8.82;2.88;;;9.50;45.30;;;;;;5090906;28;20040;-65
2022/01/28 14:03:24;;;;;;;8.35;2.25;;;9.50;45.20;;;;;;5091133;28;20384;-65
2022/01/28 14:06:01;;;;;;;8.60;2.38;;;9.40;45.20;;;;;;5090447;28;20098;-65
2022/01/28 14:08:47;;;;;;;6.55;2.20;;;9.40;45.40;;;;;;5091001;28;20028;-65
2022/01/28 14:11:37;;;;;;;8.55;2.80;;;9.40;45.50;;;;;;5095439;28;20041;-64
2022/01/28 14:14:19;;;;;;;6.22;1.70;;;9.30;45.80;;;;;;5073342;28;20474;-65
2022/01/28 14:16:47;;;;;;;6.15;1.73;;;9.30;46.30;;;;;;5105080;28;20051;-66
2022/01/28 14:19:14;;;;;;;7.25;1.80;;;9.20;46.40;;;;;;5100469;28;20024;-64
2022/01/28 14:21:44;;;;;;;8.25;2.30;;;9.10;46.60;;;;;;5083934;28;20044;-64
2022/01/28 14:24:14;;;;;;;5.65;2.00;;;9.10;46.70;;;;;;5053464;28;20025;-65
2022/01/28 14:26:43;;;;;;;8.13;2.45;;;9.10;46.60;;;;;;5057998;28;20024;-66
2022/01/28 14:29:22;;;;;;;5.43;1.50;;;9.00;46.70;;;;;;5064000;28;20048;-65
2022/01/28 14:31:48;;;;;;;7.18;1.90;;;9.00;46.70;;;;;;5052992;28;20024;-66
2022/01/28 14:34:14;;;;;;;8.73;2.10;;;9.00;46.70;;;;;;5072616;28;20031;-65
2022/01/28 14:36:40;;;;;;;6.50;2.10;;;9.10;46.60;;;;;;5081510;28;20024;-64
2022/01/28 14:39:08;;;;;;;7.50;2.25;;;9.00;47.30;;;;;;5092016;28;20020;-65
2022/01/28 14:41:34;;;;;;;7.38;3.05;;;9.00;46.80;;;;;;5091558;28;20028;-64